Time;durP1;ratioP1;P1;durP2;ratioP2;P2;SDS_P1;SDS_P2;PMS_P1;PMS_P2;Temp;Humidity;BMP_temperature;BMP_pressure;BME280_temperature;BME280_humidity;BME280_pressure;Samples;Min_cycle;Max_cycle;Signal;HPM_P1;HPM_P2
2021/03/20 00:00:50;;;;;;;7.93;3.40;;;4.20;99.90;;;;;;5045490;28;20480;-61
2021/03/20 00:03:16;;;;;;;4.78;3.40;;;4.10;99.90;;;;;;5045653;28;20577;-62
2021/03/20 00:05:43;;;;;;;6.28;3.65;;;3.90;99.90;;;;;;5044739;28;20518;-62
2021/03/20 00:08:11;;;;;;;4.43;3.15;;;4.00;99.90;;;;;;5043833;28;20499;-62
2021/03/20 00:10:38;;;;;;;4.72;3.38;;;4.00;99.90;;;;;;5044333;28;20056;-62
2021/03/20 00:13:05;;;;;;;6.25;3.72;;;4.00;99.90;;;;;;5044287;28;20509;-62
2021/03/20 00:15:32;;;;;;;4.13;3.15;;;4.00;99.90;;;;;;5044865;28;20530;-62
2021/03/20 00:17:57;;;;;;;4.47;2.92;;;3.90;99.90;;;;;;5044014;28;20487;-62
2021/03/20 00:20:36;;;;;;;5.30;3.50;;;4.00;99.90;;;;;;5044863;28;20040;-63
2021/03/20 00:23:03;;;;;;;5.50;4.05;;;3.90;99.90;;;;;;5052870;28;20577;-62
2021/03/20 00:25:31;;;;;;;5.70;3.70;;;3.90;99.90;;;;;;5064579;28;20387;-62
2021/03/20 00:28:00;;;;;;;4.80;3.08;;;4.00;99.90;;;;;;5064160;28;20029;-63
2021/03/20 00:30:27;;;;;;;5.35;4.10;;;4.00;99.90;;;;;;5064507;28;20024;-62
2021/03/20 00:32:54;;;;;;;4.47;3.33;;;3.80;99.90;;;;;;5054188;28;20423;-62
2021/03/20 00:35:21;;;;;;;4.80;3.45;;;3.70;99.90;;;;;;5044980;28;20464;-62
2021/03/20 00:37:47;;;;;;;5.93;3.45;;;3.80;99.90;;;;;;5043519;28;20079;-63
2021/03/20 00:40:17;;;;;;;5.82;3.85;;;3.80;99.90;;;;;;5044507;28;20556;-62
2021/03/20 00:42:43;;;;;;;4.55;3.38;;;3.70;99.90;;;;;;5044344;28;20025;-62
2021/03/20 00:45:11;;;;;;;6.07;4.20;;;3.70;99.90;;;;;;5044639;28;20074;-62
2021/03/20 00:47:37;;;;;;;5.25;3.88;;;3.70;99.90;;;;;;5064160;28;20411;-62
2021/03/20 00:50:06;;;;;;;5.90;3.80;;;3.60;99.90;;;;;;5064066;28;20025;-62
2021/03/20 00:52:32;;;;;;;4.93;3.50;;;3.40;99.90;;;;;;5059343;28;20569;-62
2021/03/20 00:54:58;;;;;;;4.78;3.63;;;3.50;99.90;;;;;;5044101;28;20033;-62
2021/03/20 00:57:25;;;;;;;5.43;3.47;;;3.50;99.90;;;;;;5044203;28;20458;-62
2021/03/20 00:59:51;;;;;;;5.45;3.30;;;3.60;99.90;;;;;;5044401;28;20445;-63
2021/03/20 01:02:17;;;;;;;4.60;3.47;;;3.50;99.90;;;;;;5047637;28;20028;-62
2021/03/20 01:04:43;;;;;;;5.80;3.50;;;3.50;99.90;;;;;;5064462;28;20390;-62
2021/03/20 01:07:09;;;;;;;6.75;4.68;;;3.40;99.90;;;;;;5063946;28;20492;-62
2021/03/20 01:09:35;;;;;;;8.23;4.88;;;3.40;99.90;;;;;;5063639;28;20516;-62
2021/03/20 01:12:01;;;;;;;5.45;3.70;;;3.40;99.90;;;;;;5061520;28;20036;-62
2021/03/20 01:14:27;;;;;;;6.15;3.55;;;3.50;99.90;;;;;;5047905;28;20017;-62
2021/03/20 01:16:54;;;;;;;6.25;3.65;;;3.40;99.90;;;;;;5047355;28;20497;-62
2021/03/20 01:19:20;;;;;;;6.15;4.10;;;3.40;99.90;;;;;;5048210;28;20116;-62
2021/03/20 01:21:47;;;;;;;7.40;4.40;;;3.40;99.90;;;;;;5048311;28;20100;-62
2021/03/20 01:24:13;;;;;;;6.55;4.00;;;3.30;99.90;;;;;;5066191;28;20060;-62
2021/03/20 01:26:39;;;;;;;5.47;3.80;;;3.20;99.90;;;;;;5065820;28;20079;-62
2021/03/20 01:29:05;;;;;;;7.55;4.82;;;3.30;99.90;;;;;;5047395;28;20168;-62
2021/03/20 01:31:31;;;;;;;8.30;4.47;;;3.20;99.90;;;;;;5047317;28;20067;-62
2021/03/20 01:34:01;;;;;;;6.03;3.90;;;3.10;99.90;;;;;;5047421;28;20396;-62
2021/03/20 01:36:26;;;;;;;5.65;3.88;;;3.30;99.90;;;;;;5047477;28;20025;-63
2021/03/20 01:38:53;;;;;;;5.63;4.05;;;3.30;99.90;;;;;;5047291;28;20029;-62
2021/03/20 01:41:22;;;;;;;6.75;4.20;;;3.30;99.90;;;;;;5053806;28;20025;-63
2021/03/20 01:43:48;;;;;;;6.22;3.83;;;3.30;99.90;;;;;;5054588;28;20036;-62
2021/03/20 01:46:38;;;;;;;5.05;3.50;;;3.40;99.90;;;;;;5056852;28;20410;-62
2021/03/20 01:49:24;;;;;;;5.28;3.25;;;3.40;99.90;;;;;;5046785;28;20029;-62
2021/03/20 01:52:03;;;;;;;6.18;3.90;;;3.30;99.90;;;;;;5047676;28;20040;-62
2021/03/20 01:54:43;;;;;;;5.60;3.47;;;3.20;99.90;;;;;;5047123;28;20028;-62
2021/03/20 01:57:09;;;;;;;6.97;4.25;;;3.30;99.90;;;;;;5046562;28;20068;-62
2021/03/20 01:59:35;;;;;;;7.43;4.40;;;3.10;99.90;;;;;;5047196;28;20225;-62
2021/03/20 02:02:02;;;;;;;7.80;4.10;;;3.10;99.90;;;;;;5053998;28;20029;-62
2021/03/20 02:04:28;;;;;;;6.38;4.18;;;3.10;99.90;;;;;;5067407;28;20021;-62
2021/03/20 02:06:56;;;;;;;5.25;3.42;;;3.00;99.90;;;;;;5065402;28;20051;-62
2021/03/20 02:09:25;;;;;;;6.38;4.25;;;3.10;99.90;;;;;;5065539;28;20095;-62
2021/03/20 02:12:04;;;;;;;5.53;3.85;;;3.10;99.90;;;;;;5066576;28;20036;-63
2021/03/20 02:14:42;;;;;;;4.93;3.55;;;3.20;99.90;;;;;;5046829;28;20055;-62
2021/03/20 02:17:31;;;;;;;5.43;3.50;;;3.10;99.90;;;;;;5046029;28;20025;-63
2021/03/20 02:20:06;;;;;;;5.85;3.92;;;3.20;99.90;;;;;;5046099;28;20018;-62
2021/03/20 02:22:48;;;;;;;5.82;3.72;;;3.10;99.90;;;;;;5046542;28;20459;-63
2021/03/20 02:25:52;;;;;;;6.30;4.03;;;3.00;99.90;;;;;;5046998;28;20029;-62
2021/03/20 02:28:56;;;;;;;7.60;4.05;;;2.80;99.90;;;;;;5047052;28;20029;-62
2021/03/20 02:31:30;;;;;;;6.35;4.20;;;2.90;99.90;;;;;;5065193;28;20071;-63
2021/03/20 02:33:56;;;;;;;5.93;3.67;;;2.90;99.90;;;;;;5049249;28;20033;-63
2021/03/20 02:36:46;;;;;;;5.93;4.03;;;2.90;99.90;;;;;;5046220;28;20036;-63
2021/03/20 02:39:33;;;;;;;5.03;3.70;;;3.00;99.90;;;;;;5045087;28;20041;-62
2021/03/20 02:42:14;;;;;;;7.07;3.78;;;2.90;99.90;;;;;;5046143;28;20033;-63
2021/03/20 02:45:07;;;;;;;5.63;3.88;;;2.90;99.90;;;;;;5046703;28;20036;-62
2021/03/20 02:47:39;;;;;;;6.18;4.18;;;2.90;99.90;;;;;;5045915;28;20032;-63
2021/03/20 02:50:14;;;;;;;7.93;4.80;;;2.90;99.90;;;;;;5045907;28;20035;-62
2021/03/20 02:52:49;;;;;;;9.98;5.30;;;2.80;99.90;;;;;;5045803;28;20025;-62
2021/03/20 02:55:28;;;;;;;12.65;5.68;;;2.70;99.90;;;;;;5046402;28;20017;-62
2021/03/20 02:58:03;;;;;;;17.55;7.68;;;2.90;99.90;;;;;;5045545;28;20503;-63
2021/03/20 03:00:50;;;;;;;12.70;6.40;;;2.80;99.90;;;;;;5045883;28;20035;-62
2021/03/20 03:03:18;;;;;;;16.20;7.78;;;2.90;99.90;;;;;;5046216;28;20037;-63
2021/03/20 03:06:09;;;;;;;20.48;8.82;;;2.70;99.90;;;;;;5046462;28;20040;-62
2021/03/20 03:08:43;;;;;;;20.05;9.10;;;2.70;99.90;;;;;;5044390;28;20028;-62
2021/03/20 03:11:54;;;;;;;17.17;8.50;;;2.80;99.90;;;;;;5045390;28;20036;-62
2021/03/20 03:14:26;;;;;;;19.52;8.75;;;2.70;99.90;;;;;;5081639;28;20065;-62
2021/03/20 03:16:57;;;;;;;16.80;7.97;;;2.60;99.90;;;;;;5081916;28;20048;-63
2021/03/20 03:19:39;;;;;;;13.02;6.47;;;2.70;99.90;;;;;;5059753;28;20202;-63
2021/03/20 03:22:14;;;;;;;34.53;12.38;;;2.80;99.90;;;;;;5045221;28;20032;-62
2021/03/20 03:24:44;;;;;;;31.90;12.45;;;2.70;99.90;;;;;;5045011;28;20017;-63
2021/03/20 03:27:13;;;;;;;28.85;12.05;;;2.70;99.90;;;;;;5045133;28;20166;-62
2021/03/20 03:29:41;;;;;;;20.55;9.90;;;2.70;99.90;;;;;;5045360;28;20056;-62
2021/03/20 03:32:18;;;;;;;24.77;9.77;;;2.70;99.90;;;;;;5044995;28;20040;-63
2021/03/20 03:35:18;;;;;;;25.88;10.77;;;2.70;99.90;;;;;;5044990;28;20025;-63
2021/03/20 03:37:47;;;;;;;19.67;9.25;;;2.80;99.90;;;;;;5045960;28;20025;-63
2021/03/20 03:40:20;;;;;;;13.90;7.03;;;2.70;99.90;;;;;;5044875;28;20466;-63
2021/03/20 03:42:48;;;;;;;10.02;5.47;;;2.80;99.90;;;;;;5046883;28;20083;-63
2021/03/20 03:45:15;;;;;;;10.35;5.50;;;2.80;99.90;;;;;;5065300;28;20494;-63
2021/03/20 03:47:41;;;;;;;6.60;4.20;;;2.70;99.90;;;;;;5064856;28;20512;-62
2021/03/20 03:50:16;;;;;;;5.25;3.50;;;2.70;99.90;;;;;;5063577;28;20016;-62
2021/03/20 03:52:43;;;;;;;5.80;3.67;;;2.80;99.90;;;;;;5065538;28;20330;-62
2021/03/20 03:55:09;;;;;;;5.13;3.33;;;2.80;99.90;;;;;;5048055;28;20536;-63
2021/03/20 03:57:50;;;;;;;4.95;3.50;;;2.80;99.90;;;;;;5064281;28;20517;-62
2021/03/20 04:00:16;;;;;;;8.38;4.55;;;2.70;99.90;;;;;;5063012;28;20569;-62
2021/03/20 04:02:52;;;;;;;23.20;8.55;;;2.60;99.90;;;;;;5063475;28;20108;-63
2021/03/20 04:05:41;;;;;;;17.23;7.15;;;2.40;99.90;;;;;;5043391;28;20502;-63
2021/03/20 04:08:15;;;;;;;19.58;8.32;;;2.40;99.90;;;;;;5043850;28;20565;-63
2021/03/20 04:10:46;;;;;;;18.15;7.45;;;2.60;99.90;;;;;;5044725;28;20518;-62
2021/03/20 04:13:50;;;;;;;14.90;6.35;;;2.50;99.90;;;;;;5045433;28;20434;-63
2021/03/20 04:16:20;;;;;;;13.07;5.88;;;2.30;99.90;;;;;;5052568;28;20529;-62
2021/03/20 04:19:41;;;;;;;9.80;5.15;;;2.40;99.90;;;;;;5044728;28;20501;-63
2021/03/20 04:22:37;;;;;;;9.18;5.30;;;2.40;99.90;;;;;;5061331;28;20466;-63
2021/03/20 04:25:39;;;;;;;11.88;5.57;;;2.50;99.90;;;;;;5028074;28;20525;-63
2021/03/20 04:28:42;;;;;;;9.15;5.20;;;2.40;99.90;;;;;;5044273;28;20052;-63
2021/03/20 04:31:28;;;;;;;8.40;5.45;;;2.50;99.90;;;;;;5044335;28;20380;-62
2021/03/20 04:34:05;;;;;;;9.32;5.07;;;2.40;99.90;;;;;;5043957;28;20043;-63
2021/03/20 04:36:41;;;;;;;6.82;3.92;;;2.40;99.90;;;;;;5043718;28;20032;-63
2021/03/20 04:39:10;;;;;;;6.22;4.20;;;2.40;99.90;;;;;;5044202;28;20256;-63
2021/03/20 04:41:39;;;;;;;5.45;3.65;;;2.40;99.90;;;;;;5044415;28;20017;-63
2021/03/20 04:44:08;;;;;;;6.47;3.63;;;2.40;99.90;;;;;;5043759;28;20029;-63
2021/03/20 04:46:38;;;;;;;7.07;4.40;;;2.40;99.90;;;;;;5046030;28;20078;-63
2021/03/20 04:49:38;;;;;;;8.38;4.97;;;2.40;99.90;;;;;;5048236;28;20411;-62
2021/03/20 04:52:15;;;;;;;6.80;3.97;;;2.30;99.90;;;;;;5053271;28;20028;-63
2021/03/20 04:54:42;;;;;;;6.03;3.72;;;2.20;99.90;;;;;;5067356;28;20029;-62
2021/03/20 04:57:15;;;;;;;8.98;5.25;;;2.10;99.90;;;;;;5054516;28;20025;-62
2021/03/20 04:59:57;;;;;;;8.25;5.05;;;2.00;99.90;;;;;;5067875;28;20495;-63
2021/03/20 05:02:52;;;;;;;8.98;4.90;;;2.10;99.90;;;;;;5068210;28;20149;-62
2021/03/20 05:05:24;;;;;;;;;;;2.10;99.90;;;;;;5052250;28;20052;-62
2021/03/20 05:07:53;;;;;;;6.03;3.90;;;2.20;99.90;;;;;;5047483;28;19905;-62
2021/03/20 05:10:29;;;;;;;6.82;4.45;;;2.30;99.90;;;;;;5046371;28;20025;-62
2021/03/20 05:12:57;;;;;;;6.43;3.90;;;2.30;99.90;;;;;;5047788;28;20163;-63
2021/03/20 05:15:32;;;;;;;5.70;3.42;;;2.20;99.90;;;;;;5058960;28;20103;-63
2021/03/20 05:18:01;;;;;;;6.45;4.20;;;2.20;99.90;;;;;;5067764;28;20028;-62
2021/03/20 05:20:28;;;;;;;7.03;4.75;;;2.00;99.90;;;;;;5068364;28;20498;-63
2021/03/20 05:22:56;;;;;;;7.70;4.47;;;2.00;99.90;;;;;;5066866;28;20032;-62
2021/03/20 05:25:25;;;;;;;7.53;4.80;;;2.20;99.90;;;;;;5066177;28;20036;-62
2021/03/20 05:27:55;;;;;;;8.20;4.47;;;2.20;99.90;;;;;;5066434;28;20028;-63
2021/03/20 05:30:22;;;;;;;6.55;4.38;;;2.40;99.90;;;;;;5067345;28;20526;-62
2021/03/20 05:32:49;;;;;;;6.85;4.47;;;2.40;99.90;;;;;;5067580;28;20062;-63
2021/03/20 05:35:22;;;;;;;6.68;4.07;;;2.30;99.90;;;;;;5058738;28;20021;-63
2021/03/20 05:37:48;;;;;;;6.38;4.28;;;2.30;99.90;;;;;;5047628;28;20040;-63
2021/03/20 05:40:22;;;;;;;4.78;3.08;;;2.40;99.90;;;;;;5046103;28;20029;-63
2021/03/20 05:43:22;;;;;;;4.82;3.00;;;2.40;99.90;;;;;;5047672;28;20025;-63
2021/03/20 05:46:13;;;;;;;5.57;3.58;;;2.50;99.90;;;;;;5061216;28;20037;-63
2021/03/20 05:48:55;;;;;;;5.28;3.85;;;2.40;99.90;;;;;;5047284;28;20028;-63
2021/03/20 05:51:53;;;;;;;7.15;4.25;;;2.40;99.90;;;;;;5047341;28;20025;-63
2021/03/20 05:54:28;;;;;;;6.00;3.80;;;2.40;99.90;;;;;;5047320;28;20096;-62
2021/03/20 05:57:05;;;;;;;5.80;3.22;;;2.30;99.90;;;;;;5050187;28;20028;-63
2021/03/20 05:59:57;;;;;;;4.22;3.17;;;2.10;99.90;;;;;;5060506;28;20032;-62
2021/03/20 06:02:30;;;;;;;5.13;3.72;;;2.10;99.90;;;;;;5051089;28;20044;-62
2021/03/20 06:05:03;;;;;;;5.75;3.67;;;2.10;99.90;;;;;;5046509;28;20083;-63
2021/03/20 06:07:35;;;;;;;8.25;4.82;;;2.10;99.90;;;;;;5046055;28;20393;-63
2021/03/20 06:10:15;;;;;;;8.90;5.00;;;2.00;99.90;;;;;;5046207;28;20036;-62
2021/03/20 06:12:53;;;;;;;20.45;9.10;;;2.00;99.90;;;;;;5046672;28;20116;-63
2021/03/20 06:15:32;;;;;;;22.08;9.10;;;1.90;99.90;;;;;;5046523;28;20064;-62
2021/03/20 06:18:35;;;;;;;21.40;9.98;;;1.90;99.90;;;;;;5046421;28;20041;-62
2021/03/20 06:21:13;;;;;;;16.25;7.70;;;2.00;99.90;;;;;;5046424;28;20028;-62
2021/03/20 06:23:43;;;;;;;12.65;6.63;;;2.00;99.90;;;;;;5047397;28;20060;-62
2021/03/20 06:26:30;;;;;;;12.05;6.53;;;2.10;99.90;;;;;;5046875;28;20032;-63
2021/03/20 06:29:11;;;;;;;14.95;6.97;;;2.00;99.90;;;;;;5045482;28;20029;-62
2021/03/20 06:31:42;;;;;;;19.17;10.02;;;1.90;99.90;;;;;;5046621;28;20035;-63
2021/03/20 06:34:28;;;;;;;14.32;7.97;;;1.80;99.90;;;;;;5045056;28;20013;-62
2021/03/20 06:37:18;;;;;;;18.15;8.18;;;1.80;99.90;;;;;;5064911;28;20032;-62
2021/03/20 06:40:15;;;;;;;16.85;7.78;;;1.80;99.90;;;;;;5066851;28;20023;-62
2021/03/20 06:42:44;;;;;;;23.30;10.45;;;1.80;99.90;;;;;;5066867;28;20286;-62
2021/03/20 06:45:20;;;;;;;19.77;9.38;;;1.70;99.90;;;;;;5060315;28;20017;-62
2021/03/20 06:47:55;;;;;;;18.58;9.15;;;1.70;99.90;;;;;;5046251;28;20029;-62
2021/03/20 06:50:29;;;;;;;21.67;9.23;;;1.80;99.90;;;;;;5046028;28;20044;-63
2021/03/20 06:53:07;;;;;;;23.63;10.35;;;1.90;99.90;;;;;;5046199;28;20033;-62
2021/03/20 06:55:38;;;;;;;22.63;10.07;;;1.80;99.90;;;;;;5050089;28;20469;-62
2021/03/20 06:58:19;;;;;;;26.38;11.55;;;1.90;99.90;;;;;;5058782;28;20099;-62
2021/03/20 07:00:46;;;;;;;20.98;9.63;;;1.90;99.90;;;;;;5057767;28;20035;-62
2021/03/20 07:03:39;;;;;;;24.90;10.95;;;2.00;99.90;;;;;;5054414;28;20418;-62
2021/03/20 07:06:13;;;;;;;16.48;8.02;;;1.90;99.90;;;;;;5045317;28;20035;-62
2021/03/20 07:08:51;;;;;;;;;;;2.00;99.90;;;;;;5053809;28;20033;-62
2021/03/20 07:11:22;;;;;;;16.27;8.00;;;2.00;99.90;;;;;;5054823;28;19912;-61
2021/03/20 07:13:55;;;;;;;14.73;7.13;;;2.20;99.90;;;;;;5056586;28;20502;-63
2021/03/20 07:16:23;;;;;;;10.87;6.77;;;2.10;99.90;;;;;;5046340;28;20016;-62
2021/03/20 07:18:59;;;;;;;10.32;5.68;;;2.10;99.90;;;;;;5049249;28;20024;-62
2021/03/20 07:21:56;;;;;;;11.68;7.15;;;2.30;99.90;;;;;;5057353;28;20021;-61
2021/03/20 07:24:42;;;;;;;13.32;7.10;;;2.20;99.90;;;;;;5046817;28;20044;-62
2021/03/20 07:27:14;;;;;;;13.32;7.03;;;2.10;99.90;;;;;;5066892;28;20412;-61
2021/03/20 07:30:08;;;;;;;11.73;6.25;;;2.40;99.90;;;;;;5054173;28;20024;-62
2021/03/20 07:32:39;;;;;;;7.10;4.87;;;2.40;99.90;;;;;;5050342;28;20511;-62
2021/03/20 07:35:20;;;;;;;7.80;4.85;;;2.70;99.90;;;;;;5057409;28;20029;-62
2021/03/20 07:37:47;;;;;;;6.25;4.25;;;2.70;99.90;;;;;;5059054;28;20486;-62
2021/03/20 07:40:34;;;;;;;5.95;4.30;;;2.70;99.90;;;;;;5060652;28;20040;-61
2021/03/20 07:43:36;;;;;;;7.35;4.90;;;2.80;99.90;;;;;;5049681;28;20031;-62
2021/03/20 07:46:13;;;;;;;7.00;3.90;;;2.60;99.90;;;;;;5049689;28;20534;-62
2021/03/20 07:48:41;;;;;;;6.68;4.10;;;2.90;99.90;;;;;;5061128;28;20514;-61
2021/03/20 07:51:15;;;;;;;7.78;4.75;;;2.80;99.90;;;;;;5055037;28;20501;-62
2021/03/20 07:53:49;;;;;;;5.40;3.90;;;2.80;99.90;;;;;;5047042;28;20029;-62
2021/03/20 07:56:36;;;;;;;6.57;4.63;;;3.10;99.90;;;;;;5047186;28;20556;-61
2021/03/20 07:59:02;;;;;;;7.10;4.53;;;2.90;99.90;;;;;;5056826;28;20021;-61
2021/03/20 08:01:32;;;;;;;5.93;3.85;;;2.80;99.90;;;;;;5046240;28;20103;-61
2021/03/20 08:03:59;;;;;;;5.15;3.08;;;3.20;99.90;;;;;;5062055;28;20456;-62
2021/03/20 08:06:46;;;;;;;5.30;3.38;;;3.30;99.90;;;;;;5076751;28;20105;-61
2021/03/20 08:09:21;;;;;;;4.90;3.47;;;3.40;99.90;;;;;;5059705;28;20044;-61
2021/03/20 08:12:09;;;;;;;4.35;2.70;;;3.60;99.90;;;;;;5046213;28;20025;-62
2021/03/20 08:14:49;;;;;;;4.88;3.08;;;3.70;99.90;;;;;;5045750;28;20021;-62
2021/03/20 08:17:19;;;;;;;4.93;3.35;;;3.70;99.90;;;;;;5046000;28;20025;-62
2021/03/20 08:19:46;;;;;;;4.60;2.97;;;3.60;99.90;;;;;;5045971;28;20207;-61
2021/03/20 08:22:49;;;;;;;4.63;3.13;;;3.70;99.90;;;;;;5045994;28;20033;-62
2021/03/20 08:25:26;;;;;;;7.07;4.18;;;3.60;99.90;;;;;;5045635;28;20051;-62
2021/03/20 08:27:56;;;;;;;6.90;4.40;;;3.70;99.90;;;;;;5050603;28;20033;-61
2021/03/20 08:30:31;;;;;;;8.48;5.00;;;3.70;99.90;;;;;;5063395;28;20029;-61
2021/03/20 08:33:13;;;;;;;10.18;5.28;;;3.80;99.90;;;;;;5058437;28;20032;-61
2021/03/20 08:35:43;;;;;;;13.85;6.65;;;3.70;99.90;;;;;;5046103;28;20025;-61
2021/03/20 08:38:18;;;;;;;9.70;5.57;;;3.70;99.90;;;;;;5051490;28;20043;-61
2021/03/20 08:41:16;;;;;;;8.02;4.53;;;4.00;99.90;;;;;;5046719;28;20033;-61
2021/03/20 08:43:57;;;;;;;8.68;4.43;;;4.00;99.90;;;;;;5060390;28;20387;-61
2021/03/20 08:46:38;;;;;;;6.43;4.05;;;4.00;99.90;;;;;;5056555;28;20490;-60
2021/03/20 08:49:10;;;;;;;5.68;3.70;;;4.10;99.90;;;;;;5046610;28;20039;-60
2021/03/20 08:51:59;;;;;;;16.60;8.02;;;4.10;99.90;;;;;;5049702;28;20142;-60
2021/03/20 08:55:16;;;;;;;9.27;5.55;;;4.10;99.90;;;;;;5048046;28;20395;-62
2021/03/20 08:58:22;;;;;;;11.65;6.10;;;4.30;99.90;;;;;;5051785;28;20033;-60
2021/03/20 09:00:50;;;;;;;9.10;5.18;;;4.20;99.90;;;;;;5059765;28;20530;-60
2021/03/20 09:03:18;;;;;;;7.15;3.95;;;4.30;99.90;;;;;;5048069;28;20036;-60
2021/03/20 09:05:50;;;;;;;5.93;3.85;;;4.30;99.90;;;;;;5059968;28;20070;-60
2021/03/20 09:08:27;;;;;;;6.80;4.25;;;4.30;99.90;;;;;;5063030;28;20470;-60
2021/03/20 09:11:25;;;;;;;5.10;3.63;;;4.50;99.90;;;;;;5045214;28;20036;-60
2021/03/20 09:14:21;;;;;;;5.57;3.55;;;4.40;99.90;;;;;;5054227;28;20514;-61
2021/03/20 09:16:54;;;;;;;4.88;3.40;;;4.50;99.90;;;;;;5051237;28;20024;-60
2021/03/20 09:19:38;;;;;;;6.13;4.28;;;4.50;99.90;;;;;;5049605;28;20029;-59
2021/03/20 09:22:10;;;;;;;4.63;3.42;;;4.50;99.90;;;;;;5045955;28;20119;-59
2021/03/20 09:24:43;;;;;;;5.55;3.70;;;4.60;99.90;;;;;;5057525;28;20028;-60
2021/03/20 09:27:10;;;;;;;6.97;4.70;;;4.80;99.90;;;;;;5045636;28;20064;-60
2021/03/20 09:29:36;;;;;;;7.18;5.03;;;4.60;99.90;;;;;;5060428;28;20056;-60
2021/03/20 09:32:08;;;;;;;6.43;4.28;;;4.70;99.90;;;;;;5050591;28;20585;-60
2021/03/20 09:34:40;;;;;;;5.30;3.53;;;5.00;99.90;;;;;;5061647;28;20490;-59
2021/03/20 09:37:26;;;;;;;5.28;3.58;;;4.90;99.90;;;;;;5064463;28;20551;-59
2021/03/20 09:39:55;;;;;;;4.93;3.38;;;5.00;99.90;;;;;;5068920;28;20494;-61
2021/03/20 09:42:27;;;;;;;5.55;3.80;;;4.90;99.90;;;;;;5050469;28;20438;-61
2021/03/20 09:45:07;;;;;;;5.32;3.78;;;5.00;99.90;;;;;;5067586;28;20383;-59
2021/03/20 09:47:33;;;;;;;5.63;3.88;;;5.10;99.90;;;;;;5068631;28;20515;-60
2021/03/20 09:50:04;;;;;;;5.70;4.25;;;5.30;99.90;;;;;;5055753;28;20029;-59
2021/03/20 09:52:51;;;;;;;5.22;3.55;;;5.10;99.90;;;;;;5050605;28;20465;-60
2021/03/20 09:55:29;;;;;;;5.18;3.60;;;5.30;99.90;;;;;;5048201;28;20124;-60
2021/03/20 09:57:57;;;;;;;4.70;2.88;;;5.60;99.90;;;;;;5051788;28;20375;-60
2021/03/20 10:00:44;;;;;;;5.45;2.60;;;5.70;99.90;;;;;;5054171;28;20032;-61
2021/03/20 10:03:11;;;;;;;2.67;2.17;;;5.80;99.90;;;;;;5060312;28;20029;-60
2021/03/20 10:05:37;;;;;;;3.05;2.28;;;6.00;99.90;;;;;;5068240;28;20477;-60
2021/03/20 10:08:20;;;;;;;4.80;2.90;;;6.00;99.90;;;;;;5059268;28;20024;-60
2021/03/20 10:10:52;;;;;;;4.43;3.10;;;5.90;99.90;;;;;;5066526;28;20058;-60
2021/03/20 10:13:23;;;;;;;3.08;1.95;;;5.80;99.90;;;;;;5066712;28;20024;-60
2021/03/20 10:15:59;;;;;;;3.63;2.15;;;6.00;99.90;;;;;;5067018;28;20055;-60
2021/03/20 10:18:32;;;;;;;2.97;2.33;;;6.30;99.90;;;;;;5048039;28;20036;-60
2021/03/20 10:21:04;;;;;;;4.20;2.53;;;6.10;99.90;;;;;;5056129;28;20087;-60
2021/03/20 10:23:52;;;;;;;5.28;3.28;;;6.10;99.20;;;;;;5058576;28;20032;-59
2021/03/20 10:26:20;;;;;;;3.70;2.40;;;5.90;99.40;;;;;;5045941;28;20036;-59
2021/03/20 10:28:55;;;;;;;5.07;2.50;;;6.20;99.90;;;;;;5046615;28;20241;-59
2021/03/20 10:31:24;;;;;;;5.90;3.40;;;6.40;99.70;;;;;;5046408;28;20075;-60
2021/03/20 10:34:12;;;;;;;6.72;3.60;;;6.20;98.20;;;;;;5065397;28;20037;-59
2021/03/20 10:36:41;;;;;;;3.60;2.63;;;6.20;98.50;;;;;;5059641;28;20526;-60
2021/03/20 10:39:46;;;;;;;3.58;2.60;;;6.30;98.10;;;;;;5046317;28;20043;-59
2021/03/20 10:42:31;;;;;;;3.08;2.42;;;6.30;97.40;;;;;;5064349;28;20090;-59
2021/03/20 10:45:02;;;;;;;4.97;3.25;;;6.40;96.60;;;;;;5047040;28;20397;-59
2021/03/20 10:47:34;;;;;;;3.88;2.20;;;6.20;97.30;;;;;;5046237;28;20013;-59
2021/03/20 10:50:27;;;;;;;3.97;2.80;;;6.60;97.50;;;;;;5060186;28;20029;-60
2021/03/20 10:52:59;;;;;;;5.70;3.03;;;6.50;96.10;;;;;;5065822;28;20045;-60
2021/03/20 10:55:49;;;;;;;4.55;3.28;;;6.40;96.40;;;;;;5065778;28;20034;-59
2021/03/20 10:58:31;;;;;;;3.92;2.88;;;6.70;97.00;;;;;;5056636;28;20031;-60
2021/03/20 11:00:57;;;;;;;3.28;2.40;;;7.00;97.00;;;;;;5045753;28;20462;-59
2021/03/20 11:03:34;;;;;;;3.70;2.45;;;7.20;95.80;;;;;;5045687;28;20045;-60
2021/03/20 11:06:09;;;;;;;4.10;2.95;;;7.10;95.20;;;;;;5045820;28;20035;-59
2021/03/20 11:08:38;;;;;;;2.08;1.70;;;7.20;95.40;;;;;;5044737;28;20036;-60
2021/03/20 11:11:15;;;;;;;3.20;2.20;;;7.40;96.90;;;;;;5045499;28;20076;-59
2021/03/20 11:13:50;;;;;;;3.75;2.67;;;7.60;95.90;;;;;;5053743;28;20426;-58
2021/03/20 11:16:20;;;;;;;3.13;2.08;;;7.40;94.80;;;;;;5066568;28;20128;-59
2021/03/20 11:18:49;;;;;;;3.10;2.13;;;7.70;95.70;;;;;;5059956;28;20025;-60
2021/03/20 11:21:23;;;;;;;4.43;2.38;;;7.70;96.40;;;;;;5050621;28;20445;-60
2021/03/20 11:24:02;;;;;;;3.17;2.25;;;7.90;96.10;;;;;;5057253;28;20032;-60
2021/03/20 11:26:45;;;;;;;3.08;2.10;;;8.00;94.60;;;;;;5063795;28;20506;-59
2021/03/20 11:29:16;;;;;;;3.22;2.35;;;8.20;94.50;;;;;;5087574;28;20047;-59
2021/03/20 11:31:49;;;;;;;5.38;2.90;;;8.10;95.20;;;;;;5087919;28;20028;-59
2021/03/20 11:34:31;;;;;;;3.47;2.72;;;8.10;94.40;;;;;;5086667;28;20505;-59
2021/03/20 11:37:00;;;;;;;4.53;2.55;;;8.40;93.40;;;;;;5070127;28;20491;-59
2021/03/20 11:39:28;;;;;;;2.33;1.92;;;8.40;93.80;;;;;;5052504;28;20032;-58
2021/03/20 11:42:01;;;;;;;3.60;2.75;;;8.50;93.30;;;;;;5056982;28;20522;-58
2021/03/20 11:44:30;;;;;;;5.10;3.60;;;8.30;92.80;;;;;;5064822;28;20028;-58
2021/03/20 11:46:59;;;;;;;3.90;2.53;;;8.40;94.40;;;;;;5045199;28;20380;-59
2021/03/20 11:49:31;;;;;;;3.45;2.38;;;8.60;93.10;;;;;;5050624;28;20501;-58
2021/03/20 11:51:57;;;;;;;5.72;3.30;;;8.70;92.80;;;;;;5057761;28;20028;-58
2021/03/20 11:54:32;;;;;;;18.60;9.30;;;8.40;92.60;;;;;;5053319;28;20013;-58
2021/03/20 11:57:11;;;;;;;13.70;7.05;;;8.20;92.60;;;;;;5056111;28;20029;-58
2021/03/20 11:59:46;;;;;;;7.57;4.22;;;8.60;92.50;;;;;;5059933;28;20059;-58
2021/03/20 12:02:23;;;;;;;5.93;3.50;;;8.70;92.00;;;;;;5058500;28;20055;-57
2021/03/20 12:05:10;;;;;;;3.95;2.53;;;9.00;91.20;;;;;;5055318;28;20040;-58
2021/03/20 12:07:36;;;;;;;3.55;2.78;;;8.90;91.20;;;;;;5046795;28;20052;-58
2021/03/20 12:10:34;;;;;;;4.20;2.53;;;8.90;90.20;;;;;;5058024;28;20533;-58
2021/03/20 12:13:00;;;;;;;6.88;4.35;;;8.90;90.40;;;;;;5050261;28;20040;-58
2021/03/20 12:15:35;;;;;;;4.13;2.72;;;8.70;89.50;;;;;;5054904;28;20079;-58
2021/03/20 12:18:13;;;;;;;4.47;2.65;;;9.00;89.90;;;;;;5049100;28;20024;-59
2021/03/20 12:20:42;;;;;;;2.75;2.17;;;9.40;90.90;;;;;;5057018;28;20031;-59
2021/03/20 12:23:17;;;;;;;4.45;2.50;;;9.50;89.50;;;;;;5055577;28;20044;-59
2021/03/20 12:25:45;;;;;;;2.55;1.83;;;9.60;89.40;;;;;;5056374;28;20074;-59
2021/03/20 12:28:43;;;;;;;5.97;2.40;;;9.80;88.70;;;;;;5066241;28;20065;-58
2021/03/20 12:31:27;;;;;;;3.85;2.10;;;9.80;87.10;;;;;;5050185;28;20043;-59
2021/03/20 12:34:07;;;;;;;2.08;1.65;;;10.00;88.00;;;;;;5065335;28;20020;-59
2021/03/20 12:36:49;;;;;;;3.38;1.60;;;10.00;85.10;;;;;;5056910;28;20403;-59
2021/03/20 12:39:23;;;;;;;2.28;1.80;;;10.20;84.90;;;;;;5064176;28;20025;-59
2021/03/20 12:41:51;;;;;;;;;;;10.30;84.40;;;;;;5066424;28;20032;-59
2021/03/20 12:44:23;;;;;;;3.40;2.20;;;10.20;83.20;;;;;;5060321;28;19913;-59
2021/03/20 12:46:59;;;;;;;2.33;1.90;;;10.00;83.80;;;;;;5058027;28;20025;-58
2021/03/20 12:49:36;;;;;;;3.80;2.00;;;10.20;84.20;;;;;;5046222;28;20037;-58
2021/03/20 12:52:15;;;;;;;3.88;2.38;;;10.20;81.80;;;;;;5062479;28;20044;-59
2021/03/20 12:54:44;;;;;;;2.20;1.63;;;10.00;82.70;;;;;;5065314;28;20495;-59
2021/03/20 12:57:20;;;;;;;2.40;1.98;;;10.40;84.50;;;;;;5052770;28;21155;-59
2021/03/20 12:59:46;;;;;;;2.80;1.80;;;10.40;83.20;;;;;;5060828;28;20410;-59
2021/03/20 13:02:12;;;;;;;5.40;2.83;;;10.20;80.40;;;;;;5043817;28;20036;-58
2021/03/20 13:04:39;;;;;;;4.80;2.60;;;9.70;80.40;;;;;;5057377;28;20025;-58
2021/03/20 13:07:06;;;;;;;4.00;2.50;;;9.60;82.80;;;;;;5059129;28;20067;-59
2021/03/20 13:09:33;;;;;;;3.05;2.50;;;9.70;84.90;;;;;;5055016;28;20082;-58
2021/03/20 13:11:59;;;;;;;4.72;2.58;;;10.00;83.10;;;;;;5069620;28;20070;-58
2021/03/20 13:14:26;;;;;;;4.80;2.97;;;9.50;84.00;;;;;;5064897;28;20033;-59
2021/03/20 13:16:52;;;;;;;3.00;2.40;;;9.30;84.80;;;;;;5051553;28;20029;-59
2021/03/20 13:19:19;;;;;;;3.20;2.47;;;9.80;85.20;;;;;;5057883;28;20088;-59
2021/03/20 13:21:46;;;;;;;4.57;2.90;;;9.90;83.20;;;;;;5067865;28;20028;-60
2021/03/20 13:24:14;;;;;;;6.75;3.17;;;9.50;82.60;;;;;;5067722;28;20033;-59
2021/03/20 13:26:40;;;;;;;4.55;2.40;;;9.60;82.20;;;;;;5053236;28;20029;-59
2021/03/20 13:29:07;;;;;;;4.88;2.22;;;9.70;83.00;;;;;;5066766;28;20406;-59
2021/03/20 13:31:33;;;;;;;1.90;1.60;;;9.90;81.40;;;;;;5067486;28;20040;-59
2021/03/20 13:34:00;;;;;;;2.40;1.48;;;10.20;82.10;;;;;;5067763;28;20024;-59
2021/03/20 13:36:25;;;;;;;1.70;1.60;;;10.70;83.50;;;;;;5067492;28;20486;-59
2021/03/20 13:38:51;;;;;;;2.15;1.75;;;10.60;80.50;;;;;;5065897;28;20249;-59